Topeka, KS (66611)

12:56 PM CDT die 28o April, anno 2017 (GMT -0500)
Knollwood | | Change Station

Elev 978 ft 39.02 °N, 95.70 °W | Updated 33 seconds ago

Aequaliter Nubila
Aequaliter Nubila
64.6 °F
Feels Like 64.6 °F
N
2.0
Ventus Variabilis Ventus from Zephyrus

Hodie
High -- | Low -- °F
--% Chance of Precip.
Yesterday
High -- | Low -- °F
Precip. -- in
Pressio 29.66 in
Visibilitas 10.0 milia passuum
Clouds Plerumque Nubila 900 ft
Plerumque Nubila 1500 ft
Aequaliter Nubila 2100 ft
Frigus in quo Ros apparet 57 °F
Umor 78%
Rainfall 0.33 in
Snow Depth Not available.
6:28 AM 8:13 PM
Waxing Crescent, 7% visible
METAR KFOE 281753Z 17007KT 10SM BKN009 BKN015 OVC021 17/14 A2967 RMK AO2 CIG 008V013 SLP042 T01670139 10167 20111 51008
Pressio 29.66 in
Visibilitas 10.0 milia passuum
Clouds Plerumque Nubila 900 ft
Plerumque Nubila 1500 ft
Aequaliter Nubila 2100 ft
Frigus in quo Ros apparet 57 °F
Umor 78%
Rainfall 0.33 in
Snow Depth Not available.
6:28 AM 8:13 PM
Waxing Crescent, 7% visible
METAR KFOE 281753Z 17007KT 10SM BKN009 BKN015 OVC021 17/14 A2967 RMK AO2 CIG 008V013 SLP042 T01670139 10167 20111 51008

Get Severe Weather Alerts

Thanks for signing up!

Be on the lookout for a verification email in your inbox.

You'll start receiving the daily forecast at 8 AM.

×

10-Day Weather Forecast

Almanac

Astronomy

Apr. 28, 2017 Rise Set
Actual Time
Civil Twilight
Nautical Twilight
Astronomical Twilight
Moon
Length Of Visible Light
Length of Day
Tomorrow will be .
, % of the Moon is Illuminated

Today's Extremes

State Highs State Lows

Community

WunderPhotos

WunderBlog® & News

Nearby

Air Quality

  Air Quality AQ Index Pollutant
Not available.

Snow Depth

Station Depth Elevation

Earthquake Activity

City Distance Mag. Time & Date
Minimum magnitude displayed is 2.5.

Coastal Water Temperatures

Locus Calor

Stations

Nearby Weather Stations

Station Location Temp Frigus Venti Frigus in quo Ros apparet Umor Ventus Precip. Elev Renovata Type
                   

Watches & Warnings

There are currently no watches in effect.